Time;durP1;ratioP1;P1;durP2;ratioP2;P2;SDS_P1;SDS_P2;PMS_P1;PMS_P2;Temp;Humidity;BMP_temperature;BMP_pressure;BME280_temperature;BME280_humidity;BME280_pressure;Samples;Min_cycle;Max_cycle;Signal;HPM_P1;HPM_P2
2022/04/17 00:01:42;;;;;;;;;3.80;3.80;;;;;6.56;46.67;101391.13;5094699;28;8811;-63
2022/04/17 00:04:10;;;;;;;;;4.20;3.20;;;;;6.57;46.88;101379.59;5095582;28;8850;-63
2022/04/17 00:06:38;;;;;;;;;13.60;10.40;;;;;6.56;47.17;101375.22;5095413;28;8834;-62
2022/04/17 00:09:06;;;;;;;;;7.40;7.00;;;;;6.53;47.06;101367.44;5094920;28;9493;-62
2022/04/17 00:11:33;;;;;;;;;3.40;3.40;;;;;6.48;47.57;101369.41;5094924;28;8796;-62
2022/04/17 00:14:01;;;;;;;;;6.40;6.40;;;;;6.42;47.49;101364.34;5095430;28;8831;-62
2022/04/17 00:16:29;;;;;;;;;9.20;9.00;;;;;6.33;47.74;101364.72;5095496;28;8946;-62
2022/04/17 00:18:57;;;;;;;;;7.00;6.80;;;;;6.18;47.69;101358.25;5094941;28;8824;-62
2022/04/17 00:21:25;;;;;;;;;3.60;3.60;;;;;6.04;48.58;101372.91;5095239;28;8824;-62
2022/04/17 00:23:52;;;;;;;;;3.00;3.00;;;;;5.92;48.46;101368.13;5095131;28;8828;-61
2022/04/17 00:26:20;;;;;;;;;9.00;9.00;;;;;5.83;49.06;101371.06;5094595;28;8816;-62
2022/04/17 00:28:48;;;;;;;;;6.00;6.00;;;;;5.74;48.70;101371.38;5111459;28;8817;-61
2022/04/17 00:31:15;;;;;;;;;9.20;8.60;;;;;5.68;49.28;101364.56;5101206;28;8904;-62
2022/04/17 00:33:43;;;;;;;;;6.80;6.60;;;;;5.64;49.01;101362.97;5095009;28;8836;-62
2022/04/17 00:36:11;;;;;;;;;7.40;7.40;;;;;5.62;48.92;101363.94;5095026;28;8816;-62
2022/04/17 00:38:39;;;;;;;;;4.40;4.00;;;;;5.58;48.87;101360.53;5095395;28;8979;-62
2022/04/17 00:41:06;;;;;;;;;4.00;4.00;;;;;5.53;49.13;101359.84;5094811;28;8946;-62
2022/04/17 00:43:34;;;;;;;;;6.80;6.80;;;;;5.51;49.70;101358.16;5094759;28;8820;-62
2022/04/17 00:46:02;;;;;;;;;6.80;4.00;;;;;5.49;49.61;101354.72;5095064;28;8897;-62
2022/04/17 00:48:30;;;;;;;;;5.00;5.00;;;;;5.49;49.41;101350.31;5095143;28;8827;-62
2022/04/17 00:50:58;;;;;;;;;6.00;6.00;;;;;5.48;49.12;101351.22;5094934;28;8855;-62
2022/04/17 00:53:25;;;;;;;;;6.20;6.20;;;;;5.50;49.26;101351.16;5094392;28;8935;-62
2022/04/17 00:55:53;;;;;;;;;7.20;6.00;;;;;5.61;49.20;101346.38;5094058;28;8946;-62
2022/04/17 00:58:21;;;;;;;;;3.00;3.00;;;;;5.71;48.95;101339.81;5094689;28;8816;-62
2022/04/17 01:00:48;;;;;;;;;6.00;6.00;;;;;5.84;48.41;101333.19;5095048;28;9486;-62
2022/04/17 01:03:17;;;;;;;;;4.00;4.00;;;;;5.93;48.79;101338.13;5094558;28;8942;-63
2022/04/17 01:05:46;;;;;;;;;4.00;4.00;;;;;5.97;48.34;101332.66;5096419;28;8824;-62
2022/04/17 01:08:14;;;;;;;;;3.60;3.60;;;;;6.01;48.58;101333.38;5098062;28;8862;-63
2022/04/17 01:10:42;;;;;;;;;6.00;6.00;;;;;6.02;48.15;101324.53;5098099;28;8840;-62
2022/04/17 01:13:09;;;;;;;;;7.00;6.00;;;;;6.02;48.58;101321.88;5098201;28;8800;-62
2022/04/17 01:15:37;;;;;;;;;4.00;3.00;;;;;6.02;48.83;101327.19;5098318;28;8819;-62
2022/04/17 01:18:06;;;;;;;;;6.20;4.00;;;;;6.03;48.23;101326.25;5097768;28;9531;-62
2022/04/17 01:20:33;;;;;;;;;3.80;3.80;;;;;6.01;48.18;101333.38;5097860;28;8815;-63
2022/04/17 01:28:32;;;;;;;;;4.80;3.40;;;;;5.92;48.46;101329.31;5098136;28;8830;-63
2022/04/17 01:30:59;;;;;;;;;3.00;3.00;;;;;5.88;48.58;101338.28;5097946;28;8840;-63
2022/04/17 01:33:27;;;;;;;;;1.40;1.00;;;;;5.83;48.99;101337.59;5113923;28;8841;-65
2022/04/17 01:35:55;;;;;;;;;4.40;3.00;;;;;5.79;48.88;101335.09;5116576;28;8939;-64
2022/04/17 01:38:23;;;;;;;;;4.80;4.00;;;;;5.75;49.02;101334.34;5098435;28;8827;-63
2022/04/17 01:40:50;;;;;;;;;4.80;4.80;;;;;5.73;49.41;101330.03;5097685;28;8856;-63
2022/04/17 01:43:18;;;;;;;;;3.40;3.00;;;;;5.75;49.41;101330.81;5097457;28;8853;-64
2022/04/17 01:45:45;;;;;;;;;9.80;4.00;;;;;5.78;49.07;101323.66;5097019;28;8831;-62
2022/04/17 01:48:14;;;;;;;;;4.80;4.00;;;;;5.84;49.13;101314.69;5097425;28;8840;-62
2022/04/17 01:50:41;;;;;;;;;3.40;3.40;;;;;5.92;48.71;101312.59;5097337;28;8958;-63
2022/04/17 01:53:09;;;;;;;;;5.20;4.00;;;;;6.05;48.61;101305.91;5096900;28;8946;-63
2022/04/17 01:55:36;;;;;;;;;4.80;4.00;;;;;6.19;48.40;101303.56;5096713;28;8819;-62
2022/04/17 01:58:04;;;;;;;;;6.00;4.00;;;;;6.35;48.19;101309.97;5096346;28;8816;-63
2022/04/17 02:00:32;;;;;;;;;1.00;1.00;;;;;6.47;48.26;101305.06;5096406;28;8811;-63
2022/04/17 02:03:01;;;;;;;;;4.00;4.00;;;;;6.59;48.24;101295.75;5095861;28;8822;-62
2022/04/17 02:05:28;;;;;;;;;3.00;3.00;;;;;6.72;47.69;101289.00;5096465;28;8835;-63
2022/04/17 02:07:56;;;;;;;;;5.20;4.00;;;;;6.81;47.56;101293.91;5096778;28;8962;-63
2022/04/17 02:10:24;;;;;;;;;4.00;3.80;;;;;6.86;47.77;101286.63;5095836;28;8866;-62
2022/04/17 02:12:51;;;;;;;;;3.00;2.20;;;;;6.91;48.08;101292.59;5097502;28;8834;-62
2022/04/17 02:15:19;;;;;;;;;3.60;3.60;;;;;6.96;47.69;101294.09;5097180;28;8901;-63
2022/04/17 02:17:47;;;;;;;;;4.40;4.00;;;;;6.97;47.27;101284.38;5096695;28;8844;-63
2022/04/17 02:20:15;;;;;;;;;4.00;3.40;;;;;6.97;47.45;101290.53;5097007;28;8939;-63
2022/04/17 02:22:44;;;;;;;;;6.00;4.00;;;;;6.95;47.61;101284.44;5096991;28;8824;-63
2022/04/17 02:25:12;;;;;;;;;5.20;3.40;;;;;6.94;47.73;101288.03;5096560;28;8827;-63
2022/04/17 02:27:40;;;;;;;;;4.00;4.00;;;;;6.93;47.75;101283.66;5097342;28;8851;-63
2022/04/17 02:30:08;;;;;;;;;3.00;1.40;;;;;6.92;47.79;101278.41;5096880;28;8823;-62
2022/04/17 02:32:37;;;;;;;;;4.00;3.80;;;;;6.97;48.01;101273.78;5096102;28;8814;-63
2022/04/17 02:35:05;;;;;;;;;3.60;3.20;;;;;6.94;48.00;101272.13;5096802;28;8819;-63
2022/04/17 02:37:33;;;;;;;;;3.80;3.80;;;;;6.93;48.25;101277.50;5096651;28;8902;-63
2022/04/17 02:40:01;;;;;;;;;4.40;4.00;;;;;6.88;48.13;101279.47;5096421;28;8848;-63
2022/04/17 02:42:29;;;;;;;;;4.00;4.00;;;;;6.82;47.79;101279.75;5096636;28;8820;-63
2022/04/17 02:44:56;;;;;;;;;4.80;3.80;;;;;6.73;48.40;101274.81;5096340;28;8834;-62
2022/04/17 02:50:09;;;;;;;;;3.00;2.20;;;;;6.59;48.70;101271.94;5090978;28;8808;-64
2022/04/17 02:52:37;;;;;;;;;3.20;3.00;;;;;6.51;48.68;101274.03;5096097;28;8822;-63
2022/04/17 02:55:05;;;;;;;;;2.60;2.60;;;;;6.45;48.61;101271.63;5095347;28;8942;-63
2022/04/17 02:57:33;;;;;;;;;3.40;3.00;;;;;6.38;49.05;101278.94;5096632;28;8858;-62
2022/04/17 03:00:05;;;;;;;;;4.80;4.40;;;;;6.31;49.36;101274.00;5095930;28;8912;-63
2022/04/17 03:05:38;;;;;;;;;4.40;4.40;;;;;6.08;49.20;101279.34;5048314;28;8824;-63
2022/04/17 03:08:07;;;;;;;;;7.80;6.00;;;;;5.94;49.59;101274.63;5096068;28;8961;-63
2022/04/17 03:10:35;;;;;;;;;6.80;5.60;;;;;5.83;50.31;101270.66;5095935;28;8986;-63
2022/04/17 03:13:03;;;;;;;;;5.20;4.00;;;;;5.70;50.45;101264.94;5096009;28;8819;-62
2022/04/17 03:15:30;;;;;;;;;4.40;3.20;;;;;5.58;50.58;101273.38;5095632;28;8948;-62
2022/04/17 03:17:59;;;;;;;;;4.00;4.00;;;;;5.47;50.63;101269.41;5096494;28;8835;-63
2022/04/17 03:20:27;;;;;;;;;5.80;5.60;;;;;5.36;50.82;101266.28;5095692;28;8803;-62
2022/04/17 03:22:54;;;;;;;;;5.20;4.80;;;;;5.27;50.91;101274.56;5096141;28;8873;-62
2022/04/17 03:25:22;;;;;;;;;6.40;5.20;;;;;5.17;50.71;101265.25;5095529;28;8854;-62
2022/04/17 03:27:51;;;;;;;;;3.00;3.00;;;;;5.10;50.91;101264.59;5095214;28;8850;-62
2022/04/17 03:30:18;;;;;;;;;3.80;3.80;;;;;5.01;51.52;101270.22;5095258;28;8804;-62
2022/04/17 03:32:46;;;;;;;;;6.80;5.20;;;;;4.94;51.67;101274.00;5095055;28;8853;-62
2022/04/17 03:35:14;;;;;;;;;6.00;6.00;;;;;4.87;51.43;101271.63;5095328;28;8831;-62
2022/04/17 03:37:43;;;;;;;;;9.00;8.60;;;;;4.81;51.96;101270.09;5095324;28;8859;-62
2022/04/17 03:40:11;;;;;;;;;6.40;6.40;;;;;4.75;52.17;101257.09;5095620;28;8850;-62
2022/04/17 03:42:38;;;;;;;;;4.80;4.80;;;;;4.68;52.46;101260.00;5095356;28;9478;-62
2022/04/17 03:45:06;;;;;;;;;7.80;7.00;;;;;4.62;51.89;101260.19;5095362;28;8851;-62
2022/04/17 03:47:35;;;;;;;;;8.60;8.60;;;;;4.55;52.79;101254.28;5075840;28;8935;-62
2022/04/17 03:50:04;;;;;;;;;3.20;2.60;;;;;4.52;51.86;101253.53;5078327;28;9510;-63
2022/04/17 03:52:31;;;;;;;;;5.20;3.80;;;;;4.48;52.08;101246.63;5095435;28;8815;-62
2022/04/17 03:54:59;;;;;;;;;3.40;3.00;;;;;4.41;52.17;101239.84;5095403;28;8831;-63
2022/04/17 03:57:27;;;;;;;;;8.20;6.40;;;;;4.36;52.12;101247.03;5095241;28;8854;-63
2022/04/17 03:59:54;;;;;;;;;3.60;3.60;;;;;4.32;52.22;101240.13;5095270;28;8819;-63
2022/04/17 04:02:22;;;;;;;;;6.60;6.60;;;;;4.30;52.67;101241.97;5095233;28;8824;-63
2022/04/17 04:04:50;;;;;;;;;4.80;4.00;;;;;4.27;52.87;101235.03;5095332;28;8850;-63
2022/04/17 04:07:18;;;;;;;;;3.20;3.20;;;;;4.25;52.47;101241.28;5095584;28;8835;-63
2022/04/17 04:09:45;;;;;;;;;4.00;4.00;;;;;4.21;52.43;101247.56;5095251;28;8852;-63
2022/04/17 04:12:13;;;;;;;;;4.40;3.60;;;;;4.17;52.33;101240.66;5095321;28;8823;-63
2022/04/17 04:14:41;;;;;;;;;1.80;1.40;;;;;4.14;52.52;101241.63;5095193;28;8816;-62
2022/04/17 04:17:09;;;;;;;;;3.80;3.80;;;;;4.11;52.51;101236.44;5095883;28;9527;-63
2022/04/17 04:19:37;;;;;;;;;7.00;4.00;;;;;4.10;52.87;101240.00;5095221;28;8870;-62
2022/04/17 04:22:04;;;;;;;;;4.00;4.00;;;;;4.10;52.99;101239.16;5095433;28;8974;-63
2022/04/17 04:24:32;;;;;;;;;6.80;6.20;;;;;4.08;52.26;101239.19;5095277;28;8828;-62
2022/04/17 04:29:45;;;;;;;;;3.40;3.20;;;;;4.10;52.92;101247.06;5095098;28;8836;-62
2022/04/17 04:32:13;;;;;;;;;6.40;6.00;;;;;4.09;52.62;101240.03;5091470;28;8815;-63
2022/04/17 04:34:40;;;;;;;;;4.00;4.00;;;;;4.07;52.21;101236.59;5094836;28;8820;-62
2022/04/17 04:37:08;;;;;;;;;3.40;3.40;;;;;4.09;52.51;101237.41;5099604;28;9717;-63
2022/04/17 04:39:36;;;;;;;;;3.60;3.20;;;;;4.09;52.45;101232.13;5116167;28;8845;-64
2022/04/17 04:42:03;;;;;;;;;4.00;4.00;;;;;4.12;53.07;101232.88;5107437;28;8826;-63
2022/04/17 04:44:31;;;;;;;;;4.00;4.00;;;;;4.17;52.72;101240.66;5099317;28;8832;-63
2022/04/17 04:46:59;;;;;;;;;1.80;1.80;;;;;4.20;52.78;101237.94;5098762;28;8900;-63
2022/04/17 04:49:33;;;;;;;;;7.00;6.80;;;;;4.22;52.43;101230.81;5099458;28;8839;-62
2022/04/17 04:52:01;;;;;;;;;4.00;3.20;;;;;4.24;52.25;101229.88;5099124;28;8892;-63
2022/04/17 04:54:29;;;;;;;;;6.00;6.00;;;;;4.29;52.22;101234.97;5097867;28;8839;-63
2022/04/17 04:56:57;;;;;;;;;6.00;5.60;;;;;4.31;52.03;101231.38;5096557;28;8830;-63
2022/04/17 04:59:24;;;;;;;;;6.40;6.40;;;;;4.36;52.10;101241.78;5098201;28;8961;-63
2022/04/17 05:01:52;;;;;;;;;9.20;8.60;;;;;4.40;52.47;101238.97;5096983;28;8943;-63
2022/04/17 05:04:20;;;;;;;;;5.20;5.20;;;;;4.48;52.18;101238.72;5097239;28;8828;-63
2022/04/17 05:06:48;;;;;;;;;4.40;4.00;;;;;4.54;52.03;101241.13;5097539;28;8842;-62
2022/04/17 05:09:16;;;;;;;;;9.00;8.20;;;;;4.59;52.18;101240.09;5098068;28;8980;-63
2022/04/17 05:11:44;;;;;;;;;4.40;4.40;;;;;4.63;52.20;101232.94;5098228;28;9496;-63
2022/04/17 05:14:11;;;;;;;;;5.20;5.20;;;;;4.67;51.80;101235.41;5098138;28;8808;-63
2022/04/17 05:16:40;;;;;;;;;9.00;7.40;;;;;4.74;51.68;101233.41;5097181;28;8836;-63
2022/04/17 05:19:20;;;;;;;;;6.00;6.00;;;;;4.80;51.78;101226.13;5096973;28;8815;-62
2022/04/17 05:21:50;;;;;;;;;4.80;4.40;;;;;4.89;51.31;101235.50;5098425;28;8913;-62
2022/04/17 05:24:19;;;;;;;;;7.00;6.20;;;;;4.97;51.61;101230.78;5098339;28;8846;-63
2022/04/17 05:26:46;;;;;;;;;7.00;7.00;;;;;5.05;51.43;101223.47;5097486;28;8831;-63
2022/04/17 05:29:14;;;;;;;;;6.20;6.00;;;;;5.14;50.95;101225.75;5098005;28;8901;-63
2022/04/17 05:31:41;;;;;;;;;5.60;5.60;;;;;5.25;50.77;101228.88;5097761;28;8832;-62
2022/04/17 05:34:10;;;;;;;;;8.20;7.80;;;;;5.40;50.77;101226.50;5098166;28;8812;-64
2022/04/17 05:36:37;;;;;;;;;9.60;8.80;;;;;5.55;50.58;101222.44;5097860;28;8960;-63
2022/04/17 05:39:05;;;;;;;;;6.40;6.40;;;;;5.67;50.13;101216.66;5097853;28;8843;-63
2022/04/17 05:41:33;;;;;;;;;13.00;9.80;;;;;5.79;50.41;101218.81;5097688;28;8820;-62
2022/04/17 05:44:00;;;;;;;;;9.20;8.20;;;;;5.91;50.15;101218.38;5097773;28;8958;-63
2022/04/17 05:46:29;;;;;;;;;10.60;9.60;;;;;6.04;49.60;101214.28;5097277;28;8932;-62
2022/04/17 05:48:57;;;;;;;;;7.60;6.20;;;;;6.22;49.50;101221.47;5097270;28;8882;-63
2022/04/17 05:51:25;;;;;;;;;7.80;7.80;;;;;6.39;49.46;101216.34;5096515;28;8834;-70
2022/04/17 05:53:53;;;;;;;;;7.00;7.00;;;;;6.50;49.04;101216.72;5097043;28;8855;-63
2022/04/17 05:56:20;;;;;;;;;5.60;5.20;;;;;6.61;49.50;101225.09;5096241;28;8920;-63
2022/04/17 05:58:48;;;;;;;;;6.60;6.60;;;;;6.76;48.98;101227.06;5096620;28;8867;-63
2022/04/17 06:01:16;;;;;;;;;6.60;6.40;;;;;6.88;49.03;101216.78;5095321;28;8954;-63
2022/04/17 06:03:44;;;;;;;;;9.20;7.00;;;;;7.00;48.73;101218.91;5095595;28;8828;-63
2022/04/17 06:06:12;;;;;;;;;9.60;9.00;;;;;7.21;48.26;101209.13;5095889;28;8812;-63
2022/04/17 06:08:39;;;;;;;;;8.60;7.00;;;;;7.43;48.30;101215.16;5096238;28;8831;-63
2022/04/17 06:11:07;;;;;;;;;5.20;5.20;;;;;7.62;48.03;101216.88;5095723;28;8815;-63
2022/04/17 06:13:35;;;;;;;;;1.00;1.00;;;;;7.75;47.99;101212.72;5097189;28;8851;-63
2022/04/17 06:16:03;;;;;;;;;7.00;7.00;;;;;7.88;47.87;101204.09;5097263;28;8840;-63
2022/04/17 06:18:30;;;;;;;;;5.20;4.00;;;;;7.95;47.71;101213.47;5097720;28;8953;-64
2022/04/17 06:20:58;;;;;;;;;5.20;5.20;;;;;8.10;47.86;101212.72;5096342;28;8820;-62
2022/04/17 06:23:26;;;;;;;;;8.80;6.00;;;;;8.21;47.88;101215.72;5097106;28;8812;-62
2022/04/17 06:25:54;;;;;;;;;9.40;7.00;;;;;8.33;47.49;101217.78;5097159;28;8836;-62
2022/04/17 06:28:22;;;;;;;;;8.20;6.60;;;;;8.42;47.31;101216.44;5096729;28;8897;-62
2022/04/17 06:30:49;;;;;;;;;6.40;5.80;;;;;8.55;47.51;101223.72;5096405;28;8792;-63
2022/04/17 06:33:17;;;;;;;;;4.80;4.00;;;;;8.72;46.92;101220.19;5095458;28;8816;-63
2022/04/17 06:35:44;;;;;;;;;6.00;6.00;;;;;8.83;47.22;101212.53;5097213;28;8823;-63
2022/04/17 06:38:13;;;;;;;;;3.00;3.00;;;;;8.94;47.48;101229.63;5095707;28;8811;-62
2022/04/17 06:40:40;;;;;;;;;9.00;7.00;;;;;9.04;46.97;101219.38;5095989;28;8828;-63
2022/04/17 06:43:08;;;;;;;;;7.20;6.40;;;;;9.15;47.04;101204.59;5097242;28;8940;-62
2022/04/17 06:45:36;;;;;;;;;6.40;6.00;;;;;9.28;47.05;101199.47;5096109;28;8947;-63
2022/04/17 06:48:04;;;;;;;;;7.00;6.00;;;;;9.44;46.74;101203.88;5096569;28;8815;-63
2022/04/17 06:50:32;;;;;;;;;8.20;8.20;;;;;9.60;46.32;101202.09;5095964;28;8950;-63
2022/04/17 06:53:00;;;;;;;;;6.40;6.40;;;;;9.69;46.52;101198.91;5096756;28;8836;-63
2022/04/17 06:55:27;;;;;;;;;4.40;4.00;;;;;9.79;46.59;101196.59;5095740;28;8831;-63
2022/04/17 06:57:56;;;;;;;;;3.00;3.00;;;;;9.95;46.24;101192.94;5096743;28;8832;-63
2022/04/17 07:00:23;;;;;;;;;4.00;4.00;;;;;10.14;45.91;101193.66;5096308;28;8819;-63
2022/04/17 07:02:51;;;;;;;;;5.00;5.00;;;;;10.35;45.91;101194.22;5096132;28;9500;-64
2022/04/17 07:05:19;;;;;;;;;8.00;8.00;;;;;10.54;45.77;101194.84;5096589;28;8824;-63
2022/04/17 07:07:48;;;;;;;;;5.50;5.50;;;;;10.72;45.07;101197.28;5095556;28;8954;-63
2022/04/17 07:10:15;;;;;;;;;6.25;6.25;;;;;10.90;45.18;101195.28;5094627;28;8860;-63
2022/04/17 07:12:44;;;;;;;;;5.75;4.00;;;;;11.05;45.48;101178.34;5095090;28;8823;-63
2022/04/17 07:15:12;;;;;;;;;6.00;6.00;;;;;11.22;44.85;101183.50;5095144;28;8831;-64
2022/04/17 07:17:40;;;;;;;;;4.50;4.00;;;;;11.37;44.81;101180.72;5094984;28;8993;-63
2022/04/17 07:20:07;;;;;;;;;3.50;3.00;;;;;11.56;44.87;101175.06;5094781;28;8843;-63
2022/04/17 07:22:35;;;;;;;;;4.50;4.00;;;;;11.71;44.67;101169.66;5091163;28;8812;-63
2022/04/17 07:25:03;;;;;;;;;5.50;4.00;;;;;11.87;44.31;101165.03;5094784;28;8827;-63
2022/04/17 07:27:31;;;;;;;;;3.25;2.50;;;;;12.02;44.26;101170.19;5094858;28;8835;-63
2022/04/17 07:29:59;;;;;;;;;3.00;3.00;;;;;12.16;43.58;101167.47;5094878;28;8870;-63
2022/04/17 07:32:27;;;;;;;;;4.00;3.00;;;;;12.31;43.73;101161.13;5095116;28;8832;-63
2022/04/17 07:34:55;;;;;;;;;3.50;3.50;;;;;12.48;43.60;101165.34;5095362;28;8812;-63
2022/04/17 07:37:24;;;;;;;;;3.00;3.00;;;;;12.62;43.48;101155.41;5081161;28;8812;-63
2022/04/17 07:39:52;;;;;;;;;3.75;3.75;;;;;12.72;42.93;101160.97;5094056;28;9517;-63
2022/04/17 07:42:21;;;;;;;;;3.00;3.00;;;;;12.82;43.00;101157.56;5095323;28;8838;-64
2022/04/17 07:44:49;;;;;;;;;3.00;2.50;;;;;12.94;42.82;101148.72;5095837;28;8850;-63
2022/04/17 07:47:18;;;;;;;;;1.00;1.00;;;;;13.08;43.09;101153.94;5095411;28;8823;-63
2022/04/17 07:49:46;;;;;;;;;1.00;1.00;;;;;13.23;42.42;101152.84;5094771;28;8839;-64
2022/04/17 07:52:13;;;;;;;;;1.00;1.00;;;;;13.35;42.51;101138.59;5094677;28;9780;-62
2022/04/17 07:54:48;;;;;;;;;2.50;2.50;;;;;13.41;42.08;101145.34;5093888;28;8824;-63
2022/04/17 07:57:17;;;;;;;;;3.00;3.00;;;;;13.46;42.21;101143.19;5082537;28;8820;-64
2022/04/17 07:59:45;;;;;;;;;0.50;0.50;;;;;13.61;41.82;101147.44;5095578;28;8824;-63
2022/04/17 08:02:39;;;;;;;;;1.50;1.00;;;;;13.76;41.81;101147.19;5094767;28;9446;-63
2022/04/17 08:05:08;;;;;;;;;2.50;1.00;;;;;13.92;41.13;101147.75;5095197;28;8942;-63
2022/04/17 08:07:35;;;;;;;;;0.50;0.50;;;;;14.08;40.83;101142.97;5095955;28;9485;-63
2022/04/17 08:10:03;;;;;;;;;0.50;0.50;;;;;14.18;41.15;101130.59;5095326;28;8833;-63
2022/04/17 08:12:30;;;;;;;;;0.00;0.00;;;;;14.28;40.79;101128.09;5095274;28;9473;-63
2022/04/17 08:14:58;;;;;;;;;2.00;1.50;;;;;14.35;40.60;101129.34;5095560;28;8851;-63
2022/04/17 08:17:26;;;;;;;;;2.00;1.00;;;;;14.45;40.50;101133.88;5099233;28;8839;-64
2022/04/17 08:19:54;;;;;;;;;1.50;1.50;;;;;14.49;40.78;101126.47;5098984;28;8857;-63
2022/04/17 08:22:22;;;;;;;;;1.00;1.00;;;;;14.55;40.66;101126.84;5098418;28;8832;-63
2022/04/17 08:24:50;;;;;;;;;1.00;1.00;;;;;14.63;40.17;101132.44;5098937;28;8828;-64
2022/04/17 08:27:18;;;;;;;;;0.50;0.00;;;;;14.71;40.63;101127.34;5095696;28;8946;-63
2022/04/17 08:29:46;;;;;;;;;1.00;1.00;;;;;14.81;40.28;101130.19;5098493;28;8815;-63
2022/04/17 08:32:13;;;;;;;;;1.00;1.00;;;;;14.89;39.78;101117.00;5097829;28;8816;-63
2022/04/17 08:34:41;;;;;;;;;0.00;0.00;;;;;14.99;39.67;101126.91;5099177;28;8855;-64
2022/04/17 08:37:09;;;;;;;;;3.00;3.00;;;;;15.09;39.55;101127.88;5097311;28;8804;-64
2022/04/17 08:39:37;;;;;;;;;1.00;1.00;;;;;15.13;39.69;101120.44;5097896;28;8843;-64
2022/04/17 08:42:04;;;;;;;;;3.00;1.50;;;;;15.18;39.19;101120.94;5098137;28;9742;-64
2022/04/17 08:44:32;;;;;;;;;3.00;2.50;;;;;15.19;39.75;101107.41;5097888;28;8815;-64
2022/04/17 08:47:00;;;;;;;;;3.00;3.00;;;;;15.22;39.52;101107.16;5097929;28;8828;-63
2022/04/17 08:49:28;;;;;;;;;2.00;2.00;;;;;15.32;39.44;101112.66;5098593;28;8835;-63
2022/04/17 08:51:56;;;;;;;;;0.00;0.00;;;;;15.42;39.37;101111.81;5099008;28;8816;-63
2022/04/17 08:54:24;;;;;;;;;2.50;2.50;;;;;15.53;39.45;101108.22;5099027;28;8912;-63
2022/04/17 08:56:51;;;;;;;;;1.00;1.00;;;;;15.64;38.69;101105.53;5096159;28;8815;-64
2022/04/17 08:59:19;;;;;;;;;3.00;3.00;;;;;15.74;38.46;101101.09;5098647;28;8850;-63
2022/04/17 09:01:47;;;;;;;;;3.00;2.50;;;;;15.85;38.43;101095.72;5097367;28;8816;-63
2022/04/17 09:04:15;;;;;;;;;1.00;1.00;;;;;15.96;38.21;101093.84;5098960;28;8847;-63
2022/04/17 09:06:43;;;;;;;;;3.00;3.00;;;;;16.03;38.17;101100.41;5098685;28;8824;-63
2022/04/17 09:09:10;;;;;;;;;3.00;2.50;;;;;16.15;38.33;101090.47;5098443;28;8905;-63
2022/04/17 09:11:38;;;;;;;;;1.50;1.50;;;;;16.28;37.79;101089.28;5098326;28;8823;-63
2022/04/17 09:14:06;;;;;;;;;1.00;1.00;;;;;16.47;37.52;101082.25;5097772;28;8815;-64
2022/04/17 09:16:34;;;;;;;;;1.00;1.00;;;;;16.72;37.21;101071.06;5097331;28;8819;-63
2022/04/17 09:19:02;;;;;;;;;3.00;2.50;;;;;16.92;36.90;101080.94;5098263;28;8870;-63
2022/04/17 09:21:29;;;;;;;;;3.00;3.00;;;;;17.17;36.92;101077.78;5098207;28;8849;-63
2022/04/17 09:23:57;;;;;;;;;3.00;3.00;;;;;17.48;36.13;101074.06;5098377;28;8873;-62
2022/04/17 09:26:25;;;;;;;;;2.50;2.50;;;;;17.78;36.20;101063.22;5097026;28;8836;-63
2022/04/17 09:28:53;;;;;;;;;3.00;2.60;;;;;18.00;35.82;101062.09;5098059;28;9608;-63
2022/04/17 09:31:22;;;;;;;;;5.50;3.75;;;;;18.31;35.63;101052.91;5096721;28;8847;-63
2022/04/17 09:33:50;;;;;;;;;1.80;1.80;;;;;18.62;35.26;101052.56;5098174;28;8832;-64
2022/04/17 09:36:18;;;;;;;;;1.00;1.00;;;;;18.89;35.12;101040.97;5097005;28;8928;-64
2022/04/17 09:38:47;;;;;;;;;1.00;1.00;;;;;19.27;34.76;101043.53;5096916;28;9798;-63
2022/04/17 09:41:17;;;;;;;;;1.40;1.40;;;;;19.70;34.41;101036.41;5096760;28;8828;-63
2022/04/17 09:43:47;;;;;;;;;1.40;1.00;;;;;20.13;34.00;101035.66;5097292;28;8819;-64
2022/04/17 09:46:15;;;;;;;;;3.40;3.40;;;;;20.55;33.47;101026.66;5097191;28;8831;-63
2022/04/17 09:48:44;;;;;;;;;1.00;1.00;;;;;21.03;32.36;101017.00;5096941;28;8828;-63
2022/04/17 09:51:12;;;;;;;;;1.20;1.20;;;;;21.57;32.22;101012.97;5097964;28;8812;-63
2022/04/17 09:53:39;;;;;;;;;4.80;2.40;;;;;22.15;31.60;101009.13;5097521;28;8824;-63
2022/04/17 09:56:07;;;;;;;;;2.00;2.00;;;;;22.55;31.61;101002.88;5097124;28;8823;-63
2022/04/17 09:58:36;;;;;;;;;1.40;1.00;;;;;22.87;30.70;101000.06;5096997;28;8838;-67
2022/04/17 10:01:08;;;;;;;;;0.60;0.60;;;;;23.33;30.66;100997.34;5097071;28;8917;-64
2022/04/17 10:03:38;;;;;;;;;1.20;1.20;;;;;23.72;30.29;100997.25;5096411;28;8808;-64
2022/04/17 10:06:06;;;;;;;;;2.00;1.00;;;;;23.93;29.69;100994.78;5091202;28;8835;-63
2022/04/17 10:08:34;;;;;;;;;3.20;2.40;;;;;24.20;29.73;100977.88;5097160;28;9509;-64
2022/04/17 10:11:02;;;;;;;;;1.00;1.00;;;;;24.50;29.56;100980.44;5076693;28;8959;-64
2022/04/17 10:13:30;;;;;;;;;2.00;1.40;;;;;24.89;29.33;100974.78;5076495;28;8836;-64
2022/04/17 10:15:58;;;;;;;;;2.00;2.00;;;;;25.25;28.58;100976.56;5075499;28;8828;-63
2022/04/17 10:18:26;;;;;;;;;3.60;1.80;;;;;25.62;28.31;100967.34;5076494;28;9478;-63
2022/04/17 10:20:53;;;;;;;;;2.00;2.00;;;;;25.89;28.13;100967.44;5076952;28;8805;-67
2022/04/17 10:23:21;;;;;;;;;4.60;4.60;;;;;26.01;28.48;100955.78;5076349;28;9763;-64
2022/04/17 10:25:48;;;;;;;;;3.00;3.00;;;;;26.34;27.76;100950.63;5075624;28;8829;-63
2022/04/17 10:28:17;;;;;;;;;3.00;3.00;;;;;26.74;27.25;100947.97;5075104;28;8847;-64
2022/04/17 10:30:44;;;;;;;;;2.80;2.80;;;;;27.06;27.54;100944.56;5074609;28;8848;-63
2022/04/17 10:33:12;;;;;;;;;2.00;2.00;;;;;27.29;27.60;100936.91;5074691;28;8832;-64
2022/04/17 10:35:39;;;;;;;;;3.00;3.00;;;;;27.46;26.77;100937.38;5075459;28;8943;-63
2022/04/17 10:38:07;;;;;;;;;2.00;2.00;;;;;27.70;26.83;100929.41;5074495;28;8821;-63
2022/04/17 10:40:35;;;;;;;;;3.00;2.80;;;;;27.93;26.99;100924.41;5075561;28;8848;-62
2022/04/17 10:43:03;;;;;;;;;4.20;4.20;;;;;28.20;26.23;100923.34;5075921;28;8850;-63
2022/04/17 10:45:31;;;;;;;;;4.00;4.00;;;;;28.51;26.38;100918.06;5075913;28;8966;-63
2022/04/17 10:47:59;;;;;;;;;1.00;0.80;;;;;28.83;26.17;100917.13;5075839;28;8841;-63
2022/04/17 10:50:27;;;;;;;;;3.00;3.00;;;;;29.06;25.60;100901.03;5075992;28;8862;-63
2022/04/17 10:52:55;;;;;;;;;2.00;2.00;;;;;29.14;25.84;100902.72;5076645;28;8848;-63
2022/04/17 10:55:22;;;;;;;;;3.00;3.00;;;;;29.22;25.88;100906.06;5056267;28;8880;-64
2022/04/17 10:57:50;;;;;;;;;2.80;2.00;;;;;29.29;25.70;100895.84;5075377;28;8817;-64
2022/04/17 11:00:18;;;;;;;;;4.00;3.00;;;;;29.39;25.38;100890.75;5073706;28;8840;-65
2022/04/17 11:03:05;;;;;;;;;3.00;3.00;;;;;29.58;25.12;100884.28;5074449;28;8845;-62
2022/04/17 11:05:58;;;;;;;;;4.20;4.20;;;;;29.66;24.89;100884.03;5074770;28;8905;-62
2022/04/17 11:08:21;;;;;;;;;3.60;3.00;;;;;29.62;24.86;100879.22;5074951;28;8832;-62
2022/04/17 11:10:49;;;;;;;;;4.60;4.00;;;;;29.38;25.20;100871.72;5093728;28;8843;-62
2022/04/17 11:13:17;;;;;;;;;6.20;6.00;;;;;29.20;25.51;100880.72;5094768;28;9478;-62
2022/04/17 11:15:44;;;;;;;;;5.40;5.20;;;;;29.30;25.61;100872.84;5096128;28;8846;-62
2022/04/17 11:18:12;;;;;;;;;4.20;4.20;;;;;29.61;25.37;100867.41;5095076;28;8848;-63
2022/04/17 11:20:40;;;;;;;;;3.00;3.00;;;;;30.02;25.07;100872.34;5095442;28;8854;-62
2022/04/17 11:23:08;;;;;;;;;7.00;7.00;;;;;30.29;24.55;100866.41;5095745;28;8827;-63
2022/04/17 11:25:35;;;;;;;;;6.60;6.60;;;;;30.42;24.55;100869.00;5095392;28;9014;-62
2022/04/17 11:28:05;;;;;;;;;9.00;7.40;;;;;30.50;24.85;100868.72;5095578;28;8859;-63
2022/04/17 11:30:48;;;;;;;;;3.00;3.00;;;;;30.78;24.54;100861.63;5094606;28;8820;-62
2022/04/17 11:33:16;;;;;;;;;2.40;2.00;;;;;31.25;23.63;100862.75;5095673;28;8819;-65
2022/04/17 11:35:44;;;;;;;;;5.00;5.00;;;;;31.61;24.02;100840.56;5095758;28;8834;-62
2022/04/17 11:38:12;;;;;;;;;4.60;4.60;;;;;31.69;23.71;100841.09;5095689;28;8854;-62
2022/04/17 11:40:41;;;;;;;;;6.00;5.20;;;;;31.47;23.54;100845.44;5094739;28;8854;-63
2022/04/17 11:43:09;;;;;;;;;9.20;8.40;;;;;31.43;23.99;100840.63;5094360;28;8957;-62
2022/04/17 11:45:37;;;;;;;;;3.80;3.80;;;;;31.37;23.53;100831.41;5095115;28;8850;-62
2022/04/17 11:48:05;;;;;;;;;9.20;8.40;;;;;31.27;23.54;100833.88;5095293;28;8974;-62
2022/04/17 11:50:32;;;;;;;;;9.00;8.40;;;;;31.21;23.96;100836.72;5086560;28;8853;-65
2022/04/17 11:53:00;;;;;;;;;5.00;4.80;;;;;31.24;23.77;100836.25;5094339;28;8827;-62
2022/04/17 11:55:28;;;;;;;;;6.20;6.20;;;;;31.34;23.50;100826.34;5095186;28;8816;-62
2022/04/17 11:57:57;;;;;;;;;8.60;8.00;;;;;30.86;24.49;100824.69;5094715;28;8900;-62